Estatísticas do Tribal Wars: Mundo 110: Village

Aldeia: EXPLORADO

Nome:EXPLORADO
Localização:507|645
Continente:K65
Pontos:11,874
Proprietário:RAFAELAUGUSTOO
Tribo do proprietário:BroCig
Última conquista:há 87 dias atrás
Aldeias conquistadas:3
Perfil:convidado

Histórico da Aldeia

Observação: A calculadora pressume que a vila tem constantes comandos na fila de ordem de contrução, a fim de fazer suposições quanto à possíveis evoluções. Obs: A margem de diferença de tempo pode ser de até 1.5 horas do que o exibido.

Registrado em Pontos Alterar Tempo Evoluções Possíveis
2022-01-07 22:01 295 +24 2 Possibilidades
2022-01-07 23:01 301 +6 1h 17 Possibilidades
2022-01-08 01:01 306 +5 2h 17 Possibilidades
2022-01-08 02:01 318 +12 1h 6 Possibilidades
2022-01-08 03:01 337 +19 1h 6 Possibilidades
2022-01-08 07:01 343 +6 4h Desconhecido
2022-01-08 13:01 351 +8 6h Desconhecido
2022-01-08 15:01 359 +8 2h 13 Possibilidades
2022-01-08 16:01 370 +11 1h 6 Possibilidades
2022-01-08 18:01 405 +35 2h Desconhecido
2022-01-09 01:01 422 +17 7h Desconhecido
2022-01-09 02:01 448 +26 1h 2 Possibilidades
2022-01-09 03:01 454 +6 1h 17 Possibilidades
2022-01-09 04:01 460 +6 1h 17 Possibilidades
2022-01-09 05:01 473 +13 1h 5 Possibilidades
2022-01-09 06:01 517 +44 1h 2 Possibilidades
2022-01-09 07:01 532 +15 1h 8 Possibilidades
2022-01-09 08:01 550 +18 1h 2 Possibilidades
2022-01-09 09:01 571 +21 1h 4 Possibilidades
2022-01-09 10:01 579 +8 1h 13 Possibilidades
2022-01-09 12:01 590 +11 2h 6 Possibilidades
2022-01-09 13:01 593 +3 1h 23 Possibilidades
2022-01-09 16:01 597 +4 3h Desconhecido
2022-01-09 18:01 602 +5 2h 17 Possibilidades
2022-01-10 00:01 607 +5 6h Desconhecido
2022-01-10 05:01 614 +7 5h Desconhecido
2022-01-10 06:01 641 +27 1h 5 Possibilidades
2022-01-10 07:01 649 +8 1h 13 Possibilidades
2022-01-10 08:01 660 +11 1h 6 Possibilidades
2022-01-10 09:01 679 +19 1h 6 Possibilidades
2022-01-10 10:01 687 +8 1h 13 Possibilidades
2022-01-10 11:01 695 +8 1h 13 Possibilidades
2022-01-10 12:01 706 +11 1h 6 Possibilidades
2022-01-10 13:01 734 +28 1h 2 Possibilidades
2022-01-10 15:01 760 +26 2h 2 Possibilidades
2022-01-10 16:01 791 +31 1h 2 Possibilidades
2022-01-10 17:01 828 +37 1h 2 Possibilidades
2022-01-10 19:01 872 +44 2h 2 Possibilidades
2022-01-10 22:01 925 +53 3h Mercado (20)
2022-01-11 01:01 989 +64 3h Mercado (21)
2022-01-11 02:01 1010 +21 1h 4 Possibilidades
2022-01-11 03:01 1036 +26 1h 2 Possibilidades
2022-01-11 15:01 1051 +15 12h Desconhecido
2022-01-11 16:01 1066 +15 1h 8 Possibilidades
2022-01-11 17:01 1081 +15 1h 8 Possibilidades
2022-01-11 18:01 1100 +19 1h 6 Possibilidades
2022-01-11 19:01 1122 +22 1h 5 Possibilidades
2022-01-11 21:01 1149 +27 2h 5 Possibilidades
2022-01-12 00:01 1181 +32 3h 5 Possibilidades
2022-01-12 02:01 1194 +13 2h 5 Possibilidades
2022-01-12 03:01 1209 +15 1h 8 Possibilidades
2022-01-12 05:01 1228 +19 2h 6 Possibilidades
2022-01-12 07:01 1250 +22 2h 5 Possibilidades
2022-01-12 09:01 1277 +27 2h 5 Possibilidades
2022-01-12 11:01 1318 +41 2h Ferreiro (15)
2022-01-12 13:01 1345 +27 2h 5 Possibilidades
2022-01-12 14:01 1364 +19 1h 6 Possibilidades
2022-01-12 15:01 1386 +22 1h 5 Possibilidades
2022-01-12 17:01 1413 +27 2h 5 Possibilidades
2022-01-12 18:01 1428 +15 1h 8 Possibilidades
2022-01-12 19:01 1445 +17 1h 3 Possibilidades
2022-01-12 21:01 1464 +19 2h 6 Possibilidades
2022-01-12 22:01 1486 +22 1h 5 Possibilidades
2022-01-13 00:01 1513 +27 2h 5 Possibilidades
2022-01-13 01:01 1545 +32 1h 5 Possibilidades
2022-01-13 03:01 1583 +38 2h 5 Possibilidades
2022-01-13 06:01 1629 +46 3h 5 Possibilidades
2022-01-13 08:01 1661 +32 2h 5 Possibilidades
2022-01-13 10:01 1699 +38 2h 5 Possibilidades
2022-01-13 13:01 1745 +46 3h 5 Possibilidades
2022-01-13 15:01 1777 +32 2h 5 Possibilidades
2022-01-13 18:01 1854 +77 3h 2 Possibilidades
2022-01-13 21:01 1946 +92 3h 2 Possibilidades
2022-01-14 01:01 2056 +110 4h Mercado (24)
2022-01-14 09:01 2189 +133 8h Mercado (25)
2022-01-14 20:01 2348 +159 11h Desconhecido
2022-01-14 21:01 2386 +38 1h 5 Possibilidades
2022-01-15 00:01 2432 +46 3h 5 Possibilidades
2022-01-15 03:01 2487 +55 3h 5 Possibilidades
2022-01-15 04:01 2519 +32 1h 5 Possibilidades
2022-01-15 06:01 2557 +38 2h 5 Possibilidades
2022-01-15 09:01 2603 +46 3h 5 Possibilidades
2022-01-15 17:01 2658 +55 8h Fazenda (24)
2022-01-15 20:01 2724 +66 3h 5 Possibilidades
2022-01-15 23:01 2804 +80 3h 5 Possibilidades
2022-01-16 02:01 2859 +55 3h 5 Possibilidades
2022-01-16 04:01 2925 +66 2h 5 Possibilidades
2022-01-16 08:01 3005 +80 4h 5 Possibilidades
2022-01-16 12:01 3100 +95 4h 5 Possibilidades
2022-01-16 15:01 3138 +38 3h 5 Possibilidades
2022-01-16 19:01 3233 +95 4h 5 Possibilidades
2022-01-16 22:01 3288 +55 3h 5 Possibilidades
2022-01-17 01:01 3354 +66 3h 5 Possibilidades
2022-01-17 05:01 3434 +80 4h 5 Possibilidades
2022-01-17 06:01 3470 +36 1h 3 Possibilidades
2022-01-17 07:01 3494 +24 1h 2 Possibilidades
2022-01-17 08:01 3522 +28 1h 2 Possibilidades
2022-01-17 09:01 3556 +34 1h 2 Possibilidades
2022-01-17 10:01 3598 +42 1h Quartel (16)
2022-01-17 12:01 3647 +49 2h 2 Possibilidades
2022-01-17 14:01 3716 +69 2h Desconhecido
2022-01-17 15:01 3727 +11 1h 6 Possibilidades
2022-01-17 17:01 3741 +14 2h 4 Possibilidades
2022-01-17 18:01 3757 +16 1h 3 Possibilidades
2022-01-17 19:01 3777 +20 1h 4 Possibilidades
2022-01-17 21:01 3800 +23 2h Ferreiro (12)
2022-01-17 22:01 3809 +9 1h 7 Possibilidades
2022-01-17 23:01 3818 +9 1h 7 Possibilidades
2022-01-18 01:01 3830 +12 2h 6 Possibilidades
2022-01-18 03:01 3845 +15 2h 8 Possibilidades
2022-01-18 05:01 3871 +26 2h 2 Possibilidades
2022-01-18 06:01 3893 +22 1h 5 Possibilidades
2022-01-18 08:01 3907 +14 2h 4 Possibilidades
2022-01-18 09:01 3959 +52 1h Desconhecido
2022-01-18 13:01 4054 +95 4h 5 Possibilidades
2022-01-18 16:01 4075 +21 3h 3 Possibilidades
2022-01-18 17:01 4100 +25 1h 3 Possibilidades
2022-01-18 20:01 4120 +20 3h 2 Possibilidades
2022-01-19 00:01 4145 +25 4h 2 Possibilidades
2022-01-19 03:01 4174 +29 3h 3 Possibilidades
2022-01-19 07:01 4210 +36 4h 3 Possibilidades
2022-01-19 13:01 4253 +43 6h 2 Possibilidades
2022-01-19 19:01 4368 +115 6h 5 Possibilidades
2022-01-19 23:01 4434 +66 4h 5 Possibilidades
2022-01-20 03:01 4514 +80 4h 5 Possibilidades
2022-01-20 18:01 4651 +137 15h Fazenda (29)
2022-01-20 23:01 4766 +115 5h 5 Possibilidades
2022-01-21 05:01 4903 +137 6h 5 Possibilidades
2022-01-21 19:01 4949 +46 14h Desconhecido
2022-01-22 01:01 5064 +115 6h 5 Possibilidades
2022-01-22 06:01 5201 +137 5h 5 Possibilidades
2022-01-22 10:01 5256 +55 4h 5 Possibilidades
2022-01-22 14:01 5322 +66 4h 5 Possibilidades
2022-01-22 17:01 5350 +28 3h 2 Possibilidades
2022-01-22 20:01 5384 +34 3h 2 Possibilidades
2022-01-22 23:01 5425 +41 3h Ferreiro (15)
2022-01-23 05:01 5505 +80 6h 5 Possibilidades
2022-01-23 06:01 5515 +10 1h 7 Possibilidades
2022-01-23 07:01 5527 +12 1h 6 Possibilidades
2022-01-23 08:01 5542 +15 1h 8 Possibilidades
2022-01-23 12:01 5637 +95 4h 5 Possibilidades
2022-01-23 17:01 5686 +49 5h Ferreiro (16)
2022-01-23 22:01 5744 +58 5h Ferreiro (17)
2022-01-24 05:01 5815 +71 7h Ferreiro (18)
2022-01-24 13:01 5899 +84 8h Ferreiro (19)
2022-01-24 22:01 6000 +101 9h Ferreiro (20)
2022-01-25 05:01 6095 +95 7h 5 Possibilidades
2022-01-25 12:01 6210 +115 7h 5 Possibilidades
2022-01-25 14:01 6228 +18 2h 2 Possibilidades
2022-01-25 16:01 6249 +21 2h 4 Possibilidades
2022-01-25 18:01 6761 +512 2h Desconhecido
2022-01-26 00:01 6876 +115 6h 5 Possibilidades
2022-01-26 06:01 7013 +137 6h 5 Possibilidades
2022-01-26 15:01 7178 +165 9h 5 Possibilidades
2022-01-26 18:01 7249 +71 3h 2 Possibilidades
2022-01-27 02:01 7334 +85 8h Desconhecido
2022-01-27 14:01 7436 +102 12h Desconhecido
2022-01-28 05:01 7559 +123 15h Desconhecido
2022-01-28 08:01 7588 +29 3h 3 Possibilidades
2022-01-28 11:01 7624 +36 3h 3 Possibilidades
2022-01-28 17:01 7667 +43 6h 2 Possibilidades
2022-01-29 01:01 7718 +51 8h Estábulo (16)
2022-01-29 06:01 7780 +62 5h Estábulo (17)
2022-01-31 08:01 7917 +137 50h Desconhecido
2022-01-31 16:01 8082 +165 8h 5 Possibilidades
2022-02-01 00:01 8247 +165 8h 5 Possibilidades
2022-02-01 18:01 8445 +198 18h 2 Possibilidades
2022-02-02 10:01 8643 +198 16h 4 Possibilidades
2022-02-03 01:01 8841 +198 15h 4 Possibilidades
2022-02-04 10:01 9006 +165 33h Desconhecido
2022-02-04 15:01 9153 +147 5h Quartel (23)
2022-02-04 23:01 9330 +177 8h Quartel (24)
2022-02-05 18:01 9542 +212 19h Desconhecido
2022-02-07 08:01 9616 +74 38h Desconhecido
2022-02-07 16:01 9704 +88 8h Estábulo (19)
2022-02-08 01:01 9811 +107 9h Estábulo (20)
2022-02-08 09:01 9976 +165 8h 5 Possibilidades
2022-02-08 17:01 10174 +198 8h 4 Possibilidades
2022-02-08 19:01 10200 +26 2h 2 Possibilidades
2022-02-08 22:01 10231 +31 3h Mercado (17)
2022-02-09 01:01 10268 +37 3h Mercado (18)
2022-02-09 04:01 10312 +44 3h Mercado (19)
2022-02-09 08:01 10371 +59 4h Quartel (18)
2022-02-09 09:01 10390 +19 1h 6 Possibilidades
2022-02-09 10:01 10416 +26 1h 2 Possibilidades
2022-02-09 12:01 10433 +17 2h 3 Possibilidades
2022-02-09 13:01 10454 +21 1h 4 Possibilidades
2022-02-09 15:01 10479 +25 2h 3 Possibilidades
2022-02-09 17:01 10508 +29 2h 3 Possibilidades
2022-02-09 19:01 10544 +36 2h 3 Possibilidades
2022-02-09 22:01 10587 +43 3h 3 Possibilidades
2022-02-10 02:01 10638 +51 4h 2 Possibilidades
2022-02-10 07:01 10702 +64 5h Mercado (21)
2022-02-10 12:01 10779 +77 5h Mercado (22)
2022-02-10 20:01 10871 +92 8h Mercado (23)
2022-02-11 05:01 10981 +110 9h Mercado (24)
2022-02-11 15:01 11114 +133 10h Mercado (25)
2022-02-11 20:01 10955 -159 5h -
2022-02-11 23:01 10822 -133 3h -
2022-02-12 02:01 10712 -110 3h -
2022-02-12 04:01 10620 -92 2h -
2022-02-12 07:01 10543 -77 3h -
2022-02-12 10:01 10476 -67 3h -
2022-06-10 22:01 9918 -558 2844h -
2022-06-15 14:01 9894 -24 112h -
2022-06-15 15:01 9943 +49 1h 2 Possibilidades
2022-06-15 19:01 9952 +9 4h Desconhecido
2022-06-15 20:01 9961 +9 1h 7 Possibilidades
2022-06-15 21:01 9966 +5 1h 21 Possibilidades
2022-06-15 22:01 9971 +5 1h 21 Possibilidades
2022-06-15 23:01 9978 +7 1h 4 Possibilidades
2022-06-16 01:01 10042 +64 2h 2 Possibilidades
2022-06-16 04:01 10119 +77 3h 2 Possibilidades
2022-06-16 06:01 10211 +92 2h 2 Possibilidades
2022-06-16 10:01 10321 +110 4h Mercado (24)
2022-06-16 14:01 10454 +133 4h Mercado (25)
2022-06-16 18:01 10613 +159 4h Desconhecido
2022-06-16 23:01 10804 +191 5h Desconhecido
2022-06-17 04:01 11033 +229 5h Desconhecido
2022-06-17 10:01 11307 +274 6h Desconhecido
2022-06-17 16:01 11646 +339 6h Desconhecido
2022-06-17 17:01 11655 +9 1h 7 Possibilidades
2022-06-18 00:01 11792 +137 7h 5 Possibilidades
2022-06-18 01:01 11804 +12 1h 6 Possibilidades
2022-06-18 02:01 11819 +15 1h 8 Possibilidades
2022-06-18 04:01 11836 +17 2h 3 Possibilidades
2022-06-18 11:01 12001 +165 7h 5 Possibilidades
2022-06-18 13:01 12021 +20 2h 4 Possibilidades
2022-06-18 16:01 12046 +25 3h 3 Possibilidades
2022-06-18 19:01 12075 +29 3h 3 Possibilidades
2022-06-18 23:01 12111 +36 4h 3 Possibilidades
2022-06-19 03:01 12154 +43 4h 3 Possibilidades
2022-07-07 21:01 11898 -256 450h -
2022-07-08 10:01 11874 -24 13h -

Tem que estar ligado para poder receber notificações por correio electrónico quando esta aldeia for conquistada!


2022-10-03 06:12:18 -03